Time;durP1;ratioP1;P1;durP2;ratioP2;P2;SDS_P1;SDS_P2;PMS_P1;PMS_P2;Temp;Humidity;BMP_temperature;BMP_pressure;BME280_temperature;BME280_humidity;BME280_pressure;Samples;Min_cycle;Max_cycle;Signal;HPM_P1;HPM_P2
2021/03/11 00:00:54;;;;;;;15.27;10.10;;;12.70;39.10;;;;;;5068096;28;20203;-42
2021/03/11 00:03:22;;;;;;;13.13;10.00;;;12.80;38.80;;;;;;5067218;28;20667;-42
2021/03/11 00:05:47;;;;;;;10.73;9.20;;;12.80;38.40;;;;;;5066904;28;20199;-42
2021/03/11 00:08:13;;;;;;;10.73;8.57;;;12.90;38.40;;;;;;5069263;28;20804;-42
2021/03/11 00:10:39;;;;;;;13.77;10.00;;;12.90;38.30;;;;;;5068906;28;20200;-42
2021/03/11 00:13:07;;;;;;;15.13;11.17;;;12.90;38.30;;;;;;5065856;28;20932;-42
2021/03/11 00:15:33;;;;;;;14.00;10.20;;;12.90;38.20;;;;;;5067174;28;20498;-42
2021/03/11 00:17:59;;;;;;;12.67;10.00;;;12.90;38.40;;;;;;5067626;28;20920;-42
2021/03/11 00:20:27;;;;;;;14.47;11.00;;;13.00;38.30;;;;;;5070124;28;20457;-43
2021/03/11 00:22:54;;;;;;;16.47;10.40;;;13.00;38.20;;;;;;5069170;28;20318;-43
2021/03/11 00:25:22;;;;;;;12.23;9.50;;;13.00;38.30;;;;;;5063389;28;20475;-42
2021/03/11 00:27:48;;;;;;;11.77;9.80;;;12.70;38.20;;;;;;5070483;28;20442;-43
2021/03/11 00:30:16;;;;;;;13.40;10.87;;;12.60;38.80;;;;;;5066829;28;20486;-42
2021/03/11 00:32:41;;;;;;;13.93;9.80;;;12.60;39.00;;;;;;5069664;28;20811;-43
2021/03/11 00:35:09;;;;;;;12.87;10.33;;;12.80;39.10;;;;;;5067390;28;20438;-42
2021/03/11 00:37:36;;;;;;;10.53;9.37;;;12.90;38.80;;;;;;5069632;28;20245;-42
2021/03/11 00:40:03;;;;;;;12.83;8.90;;;13.00;38.60;;;;;;5068942;28;20457;-42
2021/03/11 00:42:28;;;;;;;10.67;9.30;;;12.90;38.00;;;;;;5068180;28;20999;-43
2021/03/11 00:44:54;;;;;;;14.83;9.07;;;12.90;37.90;;;;;;5066706;28;20442;-42
2021/03/11 00:47:21;;;;;;;12.93;9.13;;;12.60;37.90;;;;;;5059109;28;20218;-42
2021/03/11 00:49:46;;;;;;;11.87;8.50;;;12.70;38.10;;;;;;5070393;28;20713;-43
2021/03/11 00:52:12;;;;;;;14.40;8.80;;;12.90;38.10;;;;;;5062688;28;20446;-43
2021/03/11 00:54:39;;;;;;;12.00;9.00;;;13.00;37.90;;;;;;5066108;28;20195;-42
2021/03/11 00:57:05;;;;;;;10.00;9.00;;;12.90;38.00;;;;;;5066747;28;20485;-43
2021/03/11 00:59:31;;;;;;;11.70;8.97;;;12.60;38.20;;;;;;5067947;28;20450;-42
2021/03/11 01:01:56;;;;;;;10.63;8.10;;;12.60;38.50;;;;;;5068977;28;20512;-43
2021/03/11 01:04:22;;;;;;;11.57;8.63;;;12.60;38.50;;;;;;5067124;28;20239;-42
2021/03/11 01:06:47;;;;;;;10.17;8.93;;;12.50;38.50;;;;;;5061321;28;20735;-42
2021/03/11 01:09:13;;;;;;;12.90;8.67;;;12.60;38.60;;;;;;5070716;28;20271;-43
2021/03/11 01:11:39;;;;;;;10.07;8.30;;;12.70;38.70;;;;;;5071977;28;20234;-42
2021/03/11 01:14:04;;;;;;;9.90;7.97;;;12.90;38.40;;;;;;5072904;28;20203;-42
2021/03/11 01:16:30;;;;;;;11.47;9.40;;;12.90;38.30;;;;;;5067107;28;20210;-43
2021/03/11 01:18:55;;;;;;;12.10;9.20;;;12.90;38.30;;;;;;5074717;28;20188;-43
2021/03/11 01:21:21;;;;;;;10.13;8.50;;;12.90;38.40;;;;;;5069643;28;20242;-42
2021/03/11 01:23:47;;;;;;;12.50;9.60;;;12.90;38.40;;;;;;5073376;28;20742;-42
2021/03/11 01:26:12;;;;;;;12.33;9.20;;;12.90;38.30;;;;;;5070008;28;20566;-42
2021/03/11 01:28:38;;;;;;;11.40;9.00;;;12.90;38.60;;;;;;5070390;28;20647;-43
2021/03/11 01:31:03;;;;;;;13.90;8.03;;;12.60;39.70;;;;;;5070786;28;20263;-42
2021/03/11 01:33:29;;;;;;;12.90;8.57;;;12.60;40.10;;;;;;5072340;28;20184;-42
2021/03/11 01:35:55;;;;;;;13.57;9.30;;;12.80;40.50;;;;;;5067794;28;20188;-42
2021/03/11 01:38:20;;;;;;;11.73;9.23;;;12.80;40.40;;;;;;5073420;28;20654;-42
2021/03/11 01:40:46;;;;;;;10.57;8.23;;;13.00;40.30;;;;;;5070363;28;20651;-42
2021/03/11 01:43:12;;;;;;;9.90;8.33;;;12.90;39.80;;;;;;5073046;28;20224;-43
2021/03/11 01:45:38;;;;;;;10.10;8.50;;;12.90;39.70;;;;;;5071721;28;20184;-43
2021/03/11 01:48:05;;;;;;;9.27;7.80;;;12.60;39.80;;;;;;5072482;28;20855;-42
2021/03/11 01:50:31;;;;;;;11.53;7.60;;;12.50;40.10;;;;;;5072196;28;20453;-43
2021/03/11 01:52:58;;;;;;;14.13;8.37;;;12.60;40.40;;;;;;5060394;28;20438;-42
2021/03/11 01:55:25;;;;;;;11.37;7.90;;;12.70;40.20;;;;;;5067839;28;20457;-43
2021/03/11 01:57:50;;;;;;;10.00;8.17;;;12.90;40.20;;;;;;5070700;28;20450;-43
2021/03/11 02:00:16;;;;;;;9.70;7.90;;;12.90;40.10;;;;;;5067061;28;20815;-42
2021/03/11 02:02:44;;;;;;;9.63;6.70;;;13.00;40.10;;;;;;5066664;28;20350;-43
2021/03/11 02:05:12;;;;;;;8.43;7.27;;;13.10;40.00;;;;;;5070760;28;20536;-42
2021/03/11 02:07:37;;;;;;;8.90;5.90;;;12.90;40.40;;;;;;5063047;28;20443;-42
2021/03/11 02:10:06;;;;;;;9.23;5.93;;;12.60;41.00;;;;;;5068977;28;20616;-42
2021/03/11 02:13:02;;;;;;;9.40;6.27;;;12.80;41.40;;;;;;5071237;28;20195;-43
2021/03/11 02:15:40;;;;;;;7.80;5.37;;;13.00;41.00;;;;;;5064128;28;20513;-42
2021/03/11 02:18:14;;;;;;;6.57;4.77;;;13.00;40.90;;;;;;5066213;28;20456;-42
2021/03/11 02:20:53;;;;;;;7.70;5.20;;;12.90;41.40;;;;;;5067432;28;20519;-42
2021/03/11 02:23:25;;;;;;;7.00;4.40;;;13.10;41.50;;;;;;5064542;28;20844;-43
2021/03/11 02:26:20;;;;;;;6.40;5.00;;;13.20;41.30;;;;;;5065687;28;20457;-43
2021/03/11 02:28:52;;;;;;;7.57;5.97;;;13.40;41.20;;;;;;5068413;28;20438;-43
2021/03/11 02:31:19;;;;;;;6.70;6.00;;;13.30;41.30;;;;;;5068649;28;20485;-43
2021/03/11 02:33:46;;;;;;;8.50;6.60;;;13.20;41.10;;;;;;5067233;28;20438;-42
2021/03/11 02:36:13;;;;;;;8.13;5.87;;;13.00;41.00;;;;;;5070383;28;20438;-42
2021/03/11 02:38:41;;;;;;;10.53;6.73;;;12.90;41.30;;;;;;5065249;28;20488;-42
2021/03/11 02:41:08;;;;;;;9.83;7.30;;;12.90;41.50;;;;;;5069383;28;20450;-42
2021/03/11 02:43:34;;;;;;;9.73;7.40;;;12.80;41.50;;;;;;5071790;28;20656;-43
2021/03/11 02:46:00;;;;;;;8.73;6.30;;;12.70;41.60;;;;;;5068735;28;20470;-43
2021/03/11 02:48:28;;;;;;;8.90;6.63;;;12.60;41.50;;;;;;5068516;28;20190;-42
2021/03/11 02:50:55;;;;;;;10.23;6.40;;;12.70;41.60;;;;;;5061355;28;20442;-42
2021/03/11 02:53:21;;;;;;;10.57;7.40;;;12.80;41.60;;;;;;5062656;28;20450;-43
2021/03/11 02:55:47;;;;;;;11.07;6.97;;;12.90;41.20;;;;;;5068462;28;20802;-42
2021/03/11 02:58:14;;;;;;;8.90;6.73;;;12.80;41.10;;;;;;5066978;28;20196;-42
2021/03/11 03:00:41;;;;;;;8.97;6.83;;;13.00;41.00;;;;;;5067980;28;20484;-42
2021/03/11 03:03:09;;;;;;;7.97;7.17;;;12.90;40.90;;;;;;5068268;28;20580;-42
2021/03/11 03:05:35;;;;;;;9.47;7.13;;;12.70;41.50;;;;;;5067549;28;20469;-42
2021/03/11 03:08:03;;;;;;;11.77;7.40;;;12.60;41.40;;;;;;5065508;28;20470;-42
2021/03/11 03:10:32;;;;;;;8.40;7.60;;;12.60;41.70;;;;;;5068774;28;20447;-43
2021/03/11 03:13:00;;;;;;;8.47;7.20;;;12.80;41.30;;;;;;5069276;28;21015;-43
2021/03/11 03:15:26;;;;;;;9.17;7.40;;;12.80;41.20;;;;;;5067787;28;20500;-43
2021/03/11 03:17:53;;;;;;;10.40;6.70;;;12.80;41.50;;;;;;5071281;28;20858;-42
2021/03/11 03:20:22;;;;;;;13.50;8.23;;;12.90;41.50;;;;;;5066862;28;20303;-42
2021/03/11 03:22:49;;;;;;;11.40;6.93;;;12.90;41.50;;;;;;5069193;28;20493;-42
2021/03/11 03:25:15;;;;;;;7.63;6.40;;;13.00;40.90;;;;;;5067980;28;20442;-42
2021/03/11 03:27:41;;;;;;;10.03;7.13;;;12.90;40.80;;;;;;5069737;28;20442;-42
2021/03/11 03:30:14;;;;;;;11.53;7.50;;;12.90;41.00;;;;;;5065636;28;20500;-43
2021/03/11 03:32:40;;;;;;;10.13;8.03;;;12.90;40.90;;;;;;5040464;28;20483;-42
2021/03/11 03:35:08;;;;;;;9.37;7.17;;;12.70;40.90;;;;;;5064730;28;20977;-43
2021/03/11 03:37:35;;;;;;;9.70;6.57;;;12.60;41.20;;;;;;5068243;28;20199;-42
2021/03/11 03:40:02;;;;;;;9.37;8.17;;;12.80;41.10;;;;;;5068514;28;20441;-43
2021/03/11 03:42:30;;;;;;;10.40;6.63;;;13.00;41.30;;;;;;5059414;28;20494;-42
2021/03/11 03:44:58;;;;;;;6.97;6.00;;;12.90;41.70;;;;;;5060043;28;20523;-43
2021/03/11 03:47:24;;;;;;;8.13;6.50;;;13.00;40.90;;;;;;5071523;28;20541;-42
2021/03/11 03:49:50;;;;;;;9.30;6.10;;;13.10;40.70;;;;;;5069828;28;20544;-42
2021/03/11 03:52:17;;;;;;;7.27;6.00;;;13.10;40.60;;;;;;5068426;28;20434;-45
2021/03/11 03:54:44;;;;;;;9.20;5.57;;;13.30;40.50;;;;;;5068754;28;20279;-43
2021/03/11 03:57:17;;;;;;;8.63;6.10;;;13.30;40.80;;;;;;5066948;28;20449;-42
2021/03/11 03:59:45;;;;;;;7.30;5.30;;;13.20;40.00;;;;;;5057183;28;20450;-42
2021/03/11 04:02:12;;;;;;;8.00;5.80;;;13.40;40.00;;;;;;5068084;28;20446;-42
2021/03/11 04:04:44;;;;;;;7.33;4.90;;;13.50;39.80;;;;;;5062746;28;20511;-42
2021/03/11 04:07:17;;;;;;;8.70;4.93;;;13.40;39.40;;;;;;5063462;28;20455;-42
2021/03/11 04:09:44;;;;;;;5.20;4.67;;;13.50;39.50;;;;;;5058165;28;20503;-43
2021/03/11 04:12:10;;;;;;;6.80;5.70;;;13.60;39.40;;;;;;5063634;28;20435;-43
2021/03/11 04:14:37;;;;;;;7.60;6.00;;;13.50;39.30;;;;;;5050646;28;20438;-42
2021/03/11 04:17:04;;;;;;;6.93;5.37;;;13.40;39.60;;;;;;5066382;28;20442;-42
2021/03/11 04:19:31;;;;;;;7.37;5.40;;;13.60;39.40;;;;;;5069293;28;20426;-43
2021/03/11 04:21:57;;;;;;;5.80;5.10;;;13.70;39.10;;;;;;5065733;28;20492;-42
2021/03/11 04:24:23;;;;;;;8.03;5.03;;;13.70;39.20;;;;;;5061058;28;20493;-43
2021/03/11 04:26:49;;;;;;;8.53;5.83;;;13.90;39.30;;;;;;5067971;28;20445;-43
2021/03/11 04:29:15;;;;;;;6.40;5.23;;;13.80;39.40;;;;;;5065511;28;20809;-43
2021/03/11 04:31:41;;;;;;;6.60;5.03;;;13.90;39.40;;;;;;5069252;28;20243;-42
2021/03/11 04:34:08;;;;;;;7.13;5.40;;;13.70;39.90;;;;;;5069476;28;20468;-42
2021/03/11 04:36:34;;;;;;;6.93;5.43;;;13.40;40.80;;;;;;5069395;28;20446;-42
2021/03/11 04:39:01;;;;;;;5.60;4.53;;;13.50;40.90;;;;;;5067490;28;20453;-43
2021/03/11 04:41:27;;;;;;;6.00;5.40;;;13.60;40.90;;;;;;5064562;28;20449;-43
2021/03/11 04:43:55;;;;;;;5.90;4.87;;;13.60;41.50;;;;;;5071246;28;20478;-42
2021/03/11 04:46:21;;;;;;;5.90;4.37;;;13.50;42.30;;;;;;5067675;28;20456;-42
2021/03/11 04:48:48;;;;;;;5.20;3.90;;;13.60;42.60;;;;;;5071697;28;20442;-43
2021/03/11 04:51:16;;;;;;;6.00;4.17;;;13.60;42.30;;;;;;5069099;28;20438;-42
2021/03/11 04:53:42;;;;;;;4.13;3.73;;;13.70;42.60;;;;;;5074574;28;20434;-43
2021/03/11 04:56:10;;;;;;;7.40;3.97;;;13.60;42.40;;;;;;5069799;28;20945;-43
2021/03/11 04:58:39;;;;;;;4.00;3.33;;;13.70;43.00;;;;;;5073066;28;20454;-43
2021/03/11 05:01:11;;;;;;;5.47;2.90;;;13.60;43.60;;;;;;5070124;28;20539;-43
2021/03/11 05:03:42;;;;;;;4.63;3.37;;;13.20;45.60;;;;;;5073368;28;20608;-43
2021/03/11 05:06:08;;;;;;;3.43;2.70;;;13.10;46.20;;;;;;5064608;28;20468;-43
2021/03/11 05:08:33;;;;;;;3.00;2.50;;;13.10;46.80;;;;;;5065857;28;20437;-42
2021/03/11 05:10:59;;;;;;;4.67;3.50;;;13.10;47.10;;;;;;5068657;28;20191;-42
2021/03/11 05:13:24;;;;;;;3.20;2.80;;;13.10;47.20;;;;;;5067366;28;20188;-42
2021/03/11 05:15:50;;;;;;;6.83;3.50;;;13.00;47.60;;;;;;5064874;28;20196;-42
2021/03/11 05:18:16;;;;;;;2.93;2.60;;;12.90;48.10;;;;;;5073433;28;20200;-43
2021/03/11 05:20:41;;;;;;;4.30;3.17;;;13.10;48.10;;;;;;5072138;28;20199;-43
2021/03/11 05:23:07;;;;;;;5.60;3.00;;;13.20;47.90;;;;;;5066062;28;20587;-42
2021/03/11 05:25:32;;;;;;;3.93;3.07;;;13.20;47.80;;;;;;5065068;28;20280;-43
2021/03/11 05:27:58;;;;;;;4.17;2.80;;;13.20;48.00;;;;;;5069695;28;20647;-43
2021/03/11 05:30:24;;;;;;;4.67;3.00;;;13.30;48.20;;;;;;5072651;28;20579;-42
2021/03/11 05:32:50;;;;;;;3.70;3.30;;;13.00;48.20;;;;;;5072984;28;20257;-43
2021/03/11 05:35:16;;;;;;;5.33;3.20;;;13.00;48.70;;;;;;5071759;28;21179;-42
2021/03/11 05:37:41;;;;;;;3.83;2.70;;;13.20;48.60;;;;;;5068900;28;20207;-43
2021/03/11 05:40:10;;;;;;;3.57;2.83;;;13.10;48.70;;;;;;5071552;28;20558;-43
2021/03/11 05:42:37;;;;;;;3.23;2.47;;;13.30;48.50;;;;;;5066363;28;20215;-42
2021/03/11 05:45:05;;;;;;;3.57;2.87;;;13.40;48.40;;;;;;5066141;28;20445;-42
2021/03/11 05:47:32;;;;;;;2.90;2.50;;;13.30;48.40;;;;;;5070542;28;20831;-42
2021/03/11 05:50:00;;;;;;;6.20;2.50;;;13.30;48.60;;;;;;5072513;28;20442;-43
2021/03/11 05:52:26;;;;;;;2.70;2.50;;;13.20;48.50;;;;;;5071609;28;20438;-42
2021/03/11 05:54:53;;;;;;;3.37;2.33;;;13.10;48.70;;;;;;5070988;28;20438;-42
2021/03/11 05:57:19;;;;;;;3.03;2.63;;;13.20;48.90;;;;;;5072350;28;20444;-42
2021/03/11 05:59:45;;;;;;;3.00;2.37;;;13.10;49.00;;;;;;5072614;28;20977;-42
2021/03/11 06:02:11;;;;;;;5.23;3.33;;;12.60;49.70;;;;;;5070538;28;20495;-42
2021/03/11 06:04:39;;;;;;;3.60;2.40;;;12.70;50.20;;;;;;5066884;28;20494;-42
2021/03/11 06:07:08;;;;;;;3.83;2.70;;;12.80;50.20;;;;;;5072802;28;20301;-42
2021/03/11 06:09:34;;;;;;;3.23;2.70;;;12.90;50.10;;;;;;5068860;28;20491;-42
2021/03/11 06:12:01;;;;;;;7.57;2.83;;;12.90;50.00;;;;;;5065557;28;20446;-43
2021/03/11 06:14:34;;;;;;;4.00;2.87;;;13.00;50.10;;;;;;5069741;28;20778;-43
2021/03/11 06:17:05;;;;;;;2.70;2.50;;;12.90;50.20;;;;;;5063810;28;20544;-44
2021/03/11 06:19:32;;;;;;;5.10;3.13;;;12.80;50.30;;;;;;5069533;28;20449;-43
2021/03/11 06:21:58;;;;;;;4.73;3.13;;;12.70;50.60;;;;;;5066895;28;20437;-43
2021/03/11 06:24:23;;;;;;;3.00;2.33;;;13.00;50.60;;;;;;5070728;28;20489;-43
2021/03/11 06:26:49;;;;;;;4.83;2.80;;;13.10;50.00;;;;;;5066257;28;20242;-44
2021/03/11 06:29:18;;;;;;;3.20;2.90;;;13.10;50.10;;;;;;5069336;28;20198;-44
2021/03/11 06:31:44;;;;;;;4.23;3.00;;;13.40;50.00;;;;;;5066080;28;20233;-43
2021/03/11 06:34:21;;;;;;;2.83;2.40;;;13.40;49.40;;;;;;5068498;28;20867;-43
2021/03/11 06:36:46;;;;;;;3.63;2.90;;;13.40;49.50;;;;;;5062581;28;20447;-43
2021/03/11 06:39:26;;;;;;;4.57;2.70;;;13.70;49.50;;;;;;5071236;28;21005;-43
2021/03/11 06:41:52;;;;;;;3.53;2.50;;;13.60;49.10;;;;;;5068923;28;20187;-44
2021/03/11 06:44:31;;;;;;;3.30;2.50;;;13.80;49.00;;;;;;5071506;28;20492;-43
2021/03/11 06:46:59;;;;;;;4.00;2.40;;;13.80;49.00;;;;;;5072124;28;20445;-43
2021/03/11 06:49:26;;;;;;;4.63;3.10;;;13.60;49.00;;;;;;5067998;28;20457;-44
2021/03/11 06:52:14;;;;;;;3.50;2.27;;;13.60;49.30;;;;;;5072407;28;20848;-43
2021/03/11 06:55:04;;;;;;;3.70;2.57;;;13.60;49.30;;;;;;5070712;28;20439;-43
2021/03/11 06:57:38;;;;;;;2.50;2.10;;;13.60;49.30;;;;;;5071650;28;20450;-43
2021/03/11 07:00:23;;;;;;;3.60;2.50;;;13.50;49.40;;;;;;5070797;28;20494;-43
2021/03/11 07:02:56;;;;;;;3.70;2.40;;;13.50;49.20;;;;;;5063347;28;20498;-43
2021/03/11 07:05:29;;;;;;;3.43;2.43;;;13.50;49.40;;;;;;5063609;28;20434;-43
2021/03/11 07:08:04;;;;;;;4.00;2.60;;;13.50;49.00;;;;;;5071851;28;20437;-43
2021/03/11 07:10:30;;;;;;;3.80;2.20;;;13.40;49.00;;;;;;5070925;28;20851;-44
2021/03/11 07:13:00;;;;;;;3.10;2.07;;;13.50;48.90;;;;;;5071132;28;20426;-43
2021/03/11 07:15:29;;;;;;;2.80;1.90;;;13.60;48.90;;;;;;5070860;28;20196;-43
2021/03/11 07:17:55;;;;;;;2.43;1.93;;;13.70;48.80;;;;;;5068789;28;20427;-43
2021/03/11 07:20:23;;;;;;;2.30;1.90;;;13.40;49.10;;;;;;5068963;28;20456;-42
2021/03/11 07:23:05;;;;;;;4.83;1.83;;;13.30;49.30;;;;;;5071032;28;20458;-43
2021/03/11 07:25:52;;;;;;;3.23;1.80;;;13.30;49.50;;;;;;5066627;28;20438;-43
2021/03/11 07:28:28;;;;;;;3.13;2.10;;;13.30;49.50;;;;;;5071895;28;20446;-43
2021/03/11 07:31:00;;;;;;;3.73;1.50;;;13.30;49.50;;;;;;5069573;28;20559;-44
2021/03/11 07:33:28;;;;;;;1.50;1.40;;;13.30;49.70;;;;;;5069735;28;20430;-44
2021/03/11 07:35:59;;;;;;;4.33;1.53;;;13.20;49.70;;;;;;5070856;28;20437;-41
2021/03/11 07:38:27;;;;;;;2.10;1.90;;;13.30;50.00;;;;;;5072146;28;20422;-42
2021/03/11 07:40:55;;;;;;;2.83;1.60;;;13.40;49.90;;;;;;5070837;28;20445;-41
2021/03/11 07:43:22;;;;;;;5.40;1.90;;;13.50;49.70;;;;;;5040616;28;20493;-42
2021/03/11 07:45:49;;;;;;;2.00;1.43;;;13.50;49.60;;;;;;5070561;28;20419;-42
2021/03/11 07:48:15;;;;;;;1.83;1.70;;;13.50;49.80;;;;;;5053750;28;20442;-42
2021/03/11 07:50:43;;;;;;;4.50;1.80;;;13.50;50.10;;;;;;5071061;28;20434;-44
2021/03/11 07:53:09;;;;;;;7.37;2.37;;;13.60;49.80;;;;;;5071256;28;20495;-44
2021/03/11 07:55:34;;;;;;;2.20;1.67;;;13.70;49.50;;;;;;5070239;28;20435;-44
2021/03/11 07:58:06;;;;;;;2.20;1.87;;;13.70;49.70;;;;;;5071660;28;20233;-44
2021/03/11 08:00:32;;;;;;;2.40;1.67;;;13.90;49.70;;;;;;5051076;28;20196;-41
2021/03/11 08:03:11;;;;;;;2.53;1.57;;;13.90;49.60;;;;;;5063326;28;20479;-44
2021/03/11 08:05:37;;;;;;;2.23;1.80;;;13.90;49.50;;;;;;5066432;28;20434;-44
2021/03/11 08:08:22;;;;;;;2.23;1.80;;;14.00;49.40;;;;;;5071585;28;20480;-44
2021/03/11 08:10:47;;;;;;;4.40;1.50;;;14.00;49.30;;;;;;5070095;28;20187;-44
2021/03/11 08:13:37;;;;;;;2.00;1.60;;;14.00;49.40;;;;;;5071624;28;20437;-42
2021/03/11 08:16:15;;;;;;;5.40;1.50;;;14.10;49.40;;;;;;5070319;28;20202;-42
2021/03/11 08:18:42;;;;;;;2.70;1.37;;;14.00;49.10;;;;;;5075376;28;20817;-44
2021/03/11 08:21:23;;;;;;;5.50;1.70;;;13.90;49.30;;;;;;5074315;28;20505;-44
2021/03/11 08:23:49;;;;;;;2.77;1.70;;;13.70;49.50;;;;;;5075197;28;20488;-44
2021/03/11 08:26:37;;;;;;;2.03;1.80;;;13.90;49.60;;;;;;5072991;28;20434;-44
2021/03/11 08:29:22;;;;;;;3.67;1.90;;;14.10;49.20;;;;;;5070276;28;20209;-44
2021/03/11 08:31:49;;;;;;;3.67;1.67;;;14.30;49.10;;;;;;5072547;28;20468;-44
2021/03/11 08:34:33;;;;;;;1.87;1.50;;;14.40;48.90;;;;;;5074713;28;20433;-44
2021/03/11 08:37:20;;;;;;;3.20;1.47;;;14.50;48.70;;;;;;5068728;28;20495;-44
2021/03/11 08:39:47;;;;;;;3.13;2.10;;;14.40;48.60;;;;;;5069849;28;20442;-43
2021/03/11 08:42:48;;;;;;;1.87;1.60;;;14.50;48.60;;;;;;5073715;28;20430;-44
2021/03/11 08:45:36;;;;;;;2.20;1.83;;;14.60;48.50;;;;;;5074176;28;20454;-44
2021/03/11 08:48:22;;;;;;;1.90;1.70;;;14.50;48.30;;;;;;5073948;28;20438;-44
2021/03/11 08:50:53;;;;;;;2.63;1.30;;;14.60;48.60;;;;;;5071792;28;20854;-44
2021/03/11 08:53:47;;;;;;;2.97;1.67;;;14.60;48.50;;;;;;5064322;28;20473;-44
2021/03/11 08:56:16;;;;;;;1.90;1.73;;;14.70;48.60;;;;;;5072655;28;20433;-44
2021/03/11 08:58:53;;;;;;;3.87;1.80;;;14.90;48.00;;;;;;5073250;28;20812;-44
2021/03/11 09:01:37;;;;;;;1.77;1.67;;;15.00;48.00;;;;;;5067720;28;20499;-44
2021/03/11 09:04:05;;;;;;;2.33;1.80;;;14.90;47.90;;;;;;5073070;28;20485;-43
2021/03/11 09:06:53;;;;;;;4.33;1.90;;;14.90;47.70;;;;;;5073425;28;20426;-43
2021/03/11 09:09:44;;;;;;;5.33;1.50;;;15.10;47.80;;;;;;5074057;28;20492;-43
2021/03/11 09:12:14;;;;;;;10.03;1.57;;;15.10;47.60;;;;;;5058235;28;20438;-41
2021/03/11 09:14:54;;;;;;;3.57;1.60;;;15.30;47.70;;;;;;5073316;28;20442;-44
2021/03/11 09:17:23;;;;;;;2.03;1.70;;;15.30;47.80;;;;;;5074449;28;20484;-44
2021/03/11 09:20:01;;;;;;;1.93;1.60;;;15.30;47.80;;;;;;5071953;28;21001;-44
2021/03/11 09:22:36;;;;;;;4.23;1.87;;;15.20;47.80;;;;;;5062589;28;20778;-43
2021/03/11 09:25:12;;;;;;;2.03;1.67;;;15.10;48.20;;;;;;5072837;28;20487;-44
2021/03/11 09:27:54;;;;;;;2.97;1.97;;;15.10;48.60;;;;;;5073491;28;20445;-44
2021/03/11 09:30:22;;;;;;;2.50;1.63;;;15.20;48.20;;;;;;5071193;28;20467;-44
2021/03/11 09:32:48;;;;;;;3.10;1.70;;;15.30;48.00;;;;;;5064041;28;20462;-42
2021/03/11 09:35:15;;;;;;;1.77;1.37;;;15.40;48.10;;;;;;5068116;28;20449;-42
2021/03/11 09:37:57;;;;;;;2.63;1.67;;;15.50;48.00;;;;;;5072943;28;20438;-42
2021/03/11 09:40:37;;;;;;;1.77;1.50;;;15.60;47.70;;;;;;5067477;28;20434;-41
2021/03/11 09:43:06;;;;;;;2.10;1.90;;;15.80;47.70;;;;;;5072288;28;20619;-44
2021/03/11 09:45:43;;;;;;;1.60;1.40;;;15.60;47.40;;;;;;5068777;28;21313;-44
2021/03/11 09:48:23;;;;;;;2.07;1.83;;;15.70;47.70;;;;;;5067407;28;20538;-45
2021/03/11 09:50:50;;;;;;;4.23;1.63;;;15.80;47.50;;;;;;5066004;28;20533;-44
2021/03/11 09:53:18;;;;;;;2.37;1.37;;;15.60;47.50;;;;;;5070281;28;20446;-44
2021/03/11 09:55:44;;;;;;;2.47;2.13;;;15.50;47.70;;;;;;5068241;28;20529;-45
2021/03/11 09:58:18;;;;;;;1.57;1.40;;;15.60;47.80;;;;;;5067361;28;20525;-44
2021/03/11 10:00:45;;;;;;;1.77;1.63;;;15.70;47.70;;;;;;5065463;28;20656;-43
2021/03/11 10:03:29;;;;;;;2.53;1.53;;;15.70;47.70;;;;;;5065450;28;20478;-44
2021/03/11 10:06:04;;;;;;;3.97;1.60;;;15.80;47.70;;;;;;5070624;28;20555;-45
2021/03/11 10:08:40;;;;;;;2.07;1.40;;;15.70;47.90;;;;;;5070971;28;20437;-44
2021/03/11 10:11:09;;;;;;;1.50;1.40;;;15.70;48.00;;;;;;5067076;28;20807;-44
2021/03/11 10:13:39;;;;;;;1.30;1.20;;;15.80;47.80;;;;;;5069971;28;20441;-44
2021/03/11 10:16:05;;;;;;;4.30;1.30;;;15.90;47.80;;;;;;5067544;28;20457;-44
2021/03/11 10:18:32;;;;;;;1.40;1.30;;;15.90;47.80;;;;;;5063790;28;20426;-44
2021/03/11 10:21:06;;;;;;;1.40;1.30;;;16.00;48.00;;;;;;5068096;28;20454;-43
2021/03/11 10:23:33;;;;;;;1.13;1.00;;;16.00;48.10;;;;;;5066429;28;20489;-41
2021/03/11 10:26:25;;;;;;;4.30;1.40;;;16.10;47.90;;;;;;5062589;28;20477;-41
2021/03/11 10:29:12;;;;;;;1.00;0.97;;;16.10;48.20;;;;;;5072067;28;20922;-43
2021/03/11 10:31:38;;;;;;;2.40;1.23;;;16.30;48.00;;;;;;5067034;28;20553;-42
2021/03/11 10:34:09;;;;;;;1.87;1.20;;;16.20;48.20;;;;;;5068930;28;21432;-42
2021/03/11 10:36:37;;;;;;;1.57;1.00;;;16.20;48.40;;;;;;5066832;28;20252;-42
2021/03/11 10:39:08;;;;;;;2.13;1.20;;;16.00;48.70;;;;;;5069684;28;20485;-44
2021/03/11 10:41:35;;;;;;;1.60;1.00;;;16.10;49.00;;;;;;5068757;28;20479;-41
2021/03/11 10:44:19;;;;;;;3.50;0.80;;;16.00;49.10;;;;;;5068014;28;20582;-42
2021/03/11 10:46:44;;;;;;;2.67;1.27;;;16.10;49.60;;;;;;5067894;28;20925;-43
2021/03/11 10:49:11;;;;;;;0.90;0.80;;;16.10;49.50;;;;;;5068149;28;20442;-41
2021/03/11 10:51:38;;;;;;;0.97;0.97;;;16.10;49.60;;;;;;5065410;28;20287;-44
2021/03/11 10:54:04;;;;;;;1.93;1.33;;;16.10;50.00;;;;;;5070165;28;21221;-42
2021/03/11 10:56:30;;;;;;;1.00;0.90;;;16.00;50.30;;;;;;5070035;28;20430;-43
2021/03/11 10:59:00;;;;;;;5.13;1.23;;;16.10;50.20;;;;;;5068250;28;20457;-42
2021/03/11 11:01:28;;;;;;;2.70;1.00;;;16.30;50.30;;;;;;5064696;28;20481;-42
2021/03/11 11:03:55;;;;;;;3.80;1.40;;;16.50;50.10;;;;;;5070217;28;20522;-43
2021/03/11 11:06:22;;;;;;;2.10;1.20;;;16.50;50.20;;;;;;5070147;28;20460;-42
2021/03/11 11:08:48;;;;;;;1.57;1.17;;;16.30;50.40;;;;;;5069322;28;20462;-43
2021/03/11 11:11:15;;;;;;;4.87;1.00;;;16.30;50.80;;;;;;5060932;28;20504;-42
2021/03/11 11:13:41;;;;;;;1.20;0.90;;;16.40;51.30;;;;;;5066703;28;20430;-42
2021/03/11 11:16:06;;;;;;;1.30;0.80;;;16.20;52.70;;;;;;5070528;28;20784;-42
2021/03/11 11:18:32;;;;;;;1.37;1.20;;;16.30;53.50;;;;;;5071425;28;20920;-42
2021/03/11 11:20:59;;;;;;;0.80;0.80;;;16.20;53.90;;;;;;5070163;28;20198;-42
2021/03/11 11:23:25;;;;;;;0.93;0.83;;;16.30;55.00;;;;;;5068113;28;20576;-42
2021/03/11 11:25:51;;;;;;;1.90;1.00;;;16.30;55.00;;;;;;5069141;28;20531;-42
2021/03/11 11:28:16;;;;;;;1.10;1.00;;;16.20;55.40;;;;;;5069133;28;20529;-42
2021/03/11 11:30:42;;;;;;;1.03;1.03;;;16.10;56.20;;;;;;5070375;28;20695;-42
2021/03/11 11:33:09;;;;;;;1.00;0.90;;;15.90;56.80;;;;;;5065132;28;20199;-41
2021/03/11 11:35:35;;;;;;;0.80;0.80;;;15.80;57.90;;;;;;5066716;28;20200;-41
2021/03/11 11:38:00;;;;;;;1.33;1.07;;;15.70;58.20;;;;;;5064723;28;20461;-41
2021/03/11 11:40:26;;;;;;;1.53;1.10;;;15.60;58.60;;;;;;5066706;28;20192;-41
2021/03/11 11:42:52;;;;;;;1.03;0.93;;;15.50;58.80;;;;;;5061854;28;20220;-41
2021/03/11 11:45:17;;;;;;;1.27;1.17;;;15.20;59.40;;;;;;5066168;28;20434;-41
2021/03/11 11:47:43;;;;;;;1.90;1.67;;;15.40;60.00;;;;;;5069542;28;20192;-41
2021/03/11 11:50:11;;;;;;;2.20;0.77;;;15.40;60.20;;;;;;5069995;28;20639;-41
2021/03/11 11:52:37;;;;;;;3.13;1.10;;;15.50;59.60;;;;;;5069947;28;20423;-41
2021/03/11 11:55:05;;;;;;;2.50;1.60;;;15.50;60.40;;;;;;5070361;28;20636;-41
2021/03/11 11:57:31;;;;;;;1.13;1.03;;;15.70;60.20;;;;;;5070824;28;20995;-41
2021/03/11 11:59:57;;;;;;;1.80;1.50;;;15.80;59.70;;;;;;5068282;28;20469;-41
2021/03/11 12:02:23;;;;;;;1.17;0.90;;;15.70;59.30;;;;;;5070726;28;20207;-41
2021/03/11 12:04:49;;;;;;;1.00;1.00;;;15.50;59.00;;;;;;5070558;28;20490;-41
2021/03/11 12:07:14;;;;;;;1.33;0.80;;;15.50;59.30;;;;;;5069316;28;20530;-41
2021/03/11 12:09:40;;;;;;;1.47;1.03;;;15.50;59.80;;;;;;5066012;28;20644;-41
2021/03/11 12:12:06;;;;;;;1.30;0.83;;;15.30;60.00;;;;;;5070662;28;20234;-41
2021/03/11 12:14:32;;;;;;;1.30;0.90;;;15.40;59.70;;;;;;5069532;28;20672;-41
2021/03/11 12:16:58;;;;;;;1.17;0.90;;;15.40;59.70;;;;;;5069891;28;20469;-41
2021/03/11 12:19:24;;;;;;;1.37;1.00;;;15.40;60.00;;;;;;5070454;28;20496;-41
2021/03/11 12:21:49;;;;;;;1.00;0.90;;;15.60;59.90;;;;;;5070456;28;20200;-41
2021/03/11 12:24:15;;;;;;;1.63;0.80;;;15.80;59.10;;;;;;5063206;28;20219;-41
2021/03/11 12:26:41;;;;;;;1.53;1.00;;;15.80;59.00;;;;;;5070070;28;20204;-41
2021/03/11 12:29:06;;;;;;;1.03;0.83;;;16.10;59.30;;;;;;5068915;28;20204;-41
2021/03/11 12:31:33;;;;;;;2.23;1.00;;;16.10;58.40;;;;;;5062697;28;20692;-41
2021/03/11 12:33:59;;;;;;;0.70;0.70;;;16.20;59.00;;;;;;5059984;28;20267;-41
2021/03/11 12:36:25;;;;;;;1.47;0.77;;;15.90;59.10;;;;;;5068063;28;20513;-42
2021/03/11 12:38:52;;;;;;;1.10;1.00;;;16.00;58.50;;;;;;5069182;28;20200;-41
2021/03/11 12:41:21;;;;;;;0.70;0.70;;;15.80;58.70;;;;;;5059568;28;20534;-41
2021/03/11 12:43:48;;;;;;;0.80;0.80;;;15.90;58.10;;;;;;5065515;28;20527;-42
2021/03/11 12:46:14;;;;;;;0.93;0.83;;;15.70;59.00;;;;;;5065992;28;20468;-41
2021/03/11 12:48:39;;;;;;;0.90;0.80;;;15.90;59.10;;;;;;5061906;28;20442;-42
2021/03/11 12:51:05;;;;;;;1.03;0.93;;;16.00;58.60;;;;;;5062460;28;20315;-44
2021/03/11 12:53:31;;;;;;;1.20;0.73;;;16.00;58.60;;;;;;5061891;28;20263;-42
2021/03/11 12:55:57;;;;;;;0.83;0.80;;;16.10;58.60;;;;;;5062487;28;20541;-43